sensor_id;sensor_type;location;lat;lon;timestamp;pressure;altitude;pressure_sealevel;temperature
7830;BMP180;3960;51.86894000;5.39848000;2023-04-03T00:00:29;103048.31;;;4.16
7830;BMP180;3960;51.86894000;5.39848000;2023-04-03T00:02:54;103060.97;;;4.24
7830;BMP180;3960;51.86894000;5.39848000;2023-04-03T00:05:20;103054.78;;;4.15
7830;BMP180;3960;51.86894000;5.39848000;2023-04-03T00:07:45;103055.69;;;4.11
7830;BMP180;3960;51.86894000;5.39848000;2023-04-03T00:10:11;103068.97;;;4.16
7830;BMP180;3960;51.86894000;5.39848000;2023-04-03T00:12:37;103042.06;;;3.99
7830;BMP180;3960;51.86894000;5.39848000;2023-04-03T00:15:03;103067.53;;;4.10
7830;BMP180;3960;51.86894000;5.39848000;2023-04-03T00:17:28;103066.56;;;4.06
7830;BMP180;3960;51.86894000;5.39848000;2023-04-03T00:19:54;103058.03;;;4.04
7830;BMP180;3960;51.86894000;5.39848000;2023-04-03T00:22:19;103061.63;;;3.99
7830;BMP180;3960;51.86894000;5.39848000;2023-04-03T00:24:44;103069.06;;;4.02
7830;BMP180;3960;51.86894000;5.39848000;2023-04-03T00:27:10;103062.88;;;4.02
7830;BMP180;3960;51.86894000;5.39848000;2023-04-03T00:29:36;103075.03;;;3.99
7830;BMP180;3960;51.86894000;5.39848000;2023-04-03T00:32:01;103050.00;;;3.82
7830;BMP180;3960;51.86894000;5.39848000;2023-04-03T00:34:26;103079.75;;;3.94
7830;BMP180;3960;51.86894000;5.39848000;2023-04-03T00:36:52;103072.75;;;3.84
7830;BMP180;3960;51.86894000;5.39848000;2023-04-03T00:39:17;103073.22;;;3.86
7830;BMP180;3960;51.86894000;5.39848000;2023-04-03T00:41:42;103066.88;;;3.82
7830;BMP180;3960;51.86894000;5.39848000;2023-04-03T00:47:03;103083.75;;;3.83
7830;BMP180;3960;51.86894000;5.39848000;2023-04-03T00:49:30;103085.66;;;3.82
7830;BMP180;3960;51.86894000;5.39848000;2023-04-03T00:51:56;103072.28;;;3.69
7830;BMP180;3960;51.86894000;5.39848000;2023-04-03T00:54:22;103083.88;;;3.78
7830;BMP180;3960;51.86894000;5.39848000;2023-04-03T00:56:50;103068.97;;;3.63
7830;BMP180;3960;51.86894000;5.39848000;2023-04-03T00:59:20;103090.63;;;3.75
7830;BMP180;3960;51.86894000;5.39848000;2023-04-03T01:01:48;103096.31;;;3.74
7830;BMP180;3960;51.86894000;5.39848000;2023-04-03T01:04:44;103100.88;;;3.73
7830;BMP180;3960;51.86894000;5.39848000;2023-04-03T01:07:12;103074.44;;;3.59
7830;BMP180;3960;51.86894000;5.39848000;2023-04-03T01:09:39;103091.97;;;3.64
7830;BMP180;3960;51.86894000;5.39848000;2023-04-03T01:12:19;103094.84;;;3.68
7830;BMP180;3960;51.86894000;5.39848000;2023-04-03T01:14:46;103100.03;;;3.64
7830;BMP180;3960;51.86894000;5.39848000;2023-04-03T01:22:46;103095.06;;;3.58
7830;BMP180;3960;51.86894000;5.39848000;2023-04-03T01:25:19;103090.81;;;3.57
7830;BMP180;3960;51.86894000;5.39848000;2023-04-03T01:27:44;103092.69;;;3.57
7830;BMP180;3960;51.86894000;5.39848000;2023-04-03T01:30:10;103094.09;;;3.54
7830;BMP180;3960;51.86894000;5.39848000;2023-04-03T01:32:35;103105.09;;;3.53
7830;BMP180;3960;51.86894000;5.39848000;2023-04-03T01:35:01;103098.78;;;3.49
7830;BMP180;3960;51.86894000;5.39848000;2023-04-03T01:37:26;103098.28;;;3.47
7830;BMP180;3960;51.86894000;5.39848000;2023-04-03T01:39:51;103097.00;;;3.44
7830;BMP180;3960;51.86894000;5.39848000;2023-04-03T01:42:17;103094.31;;;3.44
7830;BMP180;3960;51.86894000;5.39848000;2023-04-03T01:44:42;103095.22;;;3.40
7830;BMP180;3960;51.86894000;5.39848000;2023-04-03T01:47:08;103094.13;;;3.41
7830;BMP180;3960;51.86894000;5.39848000;2023-04-03T01:49:33;103091.56;;;3.36
7830;BMP180;3960;51.86894000;5.39848000;2023-04-03T01:51:58;103095.66;;;3.33
7830;BMP180;3960;51.86894000;5.39848000;2023-04-03T01:54:24;103096.44;;;3.34
7830;BMP180;3960;51.86894000;5.39848000;2023-04-03T01:56:49;103089.91;;;3.26
7830;BMP180;3960;51.86894000;5.39848000;2023-04-03T01:59:14;103103.50;;;3.30
7830;BMP180;3960;51.86894000;5.39848000;2023-04-03T02:01:42;103106.16;;;3.30
7830;BMP180;3960;51.86894000;5.39848000;2023-04-03T02:04:08;103108.34;;;3.28
7830;BMP180;3960;51.86894000;5.39848000;2023-04-03T02:06:33;103110.56;;;3.26
7830;BMP180;3960;51.86894000;5.39848000;2023-04-03T02:08:59;103114.31;;;3.25
7830;BMP180;3960;51.86894000;5.39848000;2023-04-03T02:11:25;103103.03;;;3.14
7830;BMP180;3960;51.86894000;5.39848000;2023-04-03T02:13:50;103104.81;;;3.19
7830;BMP180;3960;51.86894000;5.39848000;2023-04-03T02:16:15;103115.53;;;3.19
7830;BMP180;3960;51.86894000;5.39848000;2023-04-03T02:18:41;103112.34;;;3.17
7830;BMP180;3960;51.86894000;5.39848000;2023-04-03T02:21:06;103118.78;;;3.16
7830;BMP180;3960;51.86894000;5.39848000;2023-04-03T02:23:32;103118.97;;;3.19
7830;BMP180;3960;51.86894000;5.39848000;2023-04-03T02:26:06;103119.09;;;3.14
7830;BMP180;3960;51.86894000;5.39848000;2023-04-03T02:28:32;103105.72;;;3.01
7830;BMP180;3960;51.86894000;5.39848000;2023-04-03T02:30:58;103112.84;;;3.05
7830;BMP180;3960;51.86894000;5.39848000;2023-04-03T02:33:23;103119.22;;;3.09
7830;BMP180;3960;51.86894000;5.39848000;2023-04-03T02:35:53;103124.75;;;3.13
7830;BMP180;3960;51.86894000;5.39848000;2023-04-03T02:38:18;103126.63;;;3.12
7830;BMP180;3960;51.86894000;5.39848000;2023-04-03T02:40:43;103133.56;;;3.13
7830;BMP180;3960;51.86894000;5.39848000;2023-04-03T02:43:09;103121.38;;;3.07
7830;BMP180;3960;51.86894000;5.39848000;2023-04-03T02:45:35;103134.47;;;3.09
7830;BMP180;3960;51.86894000;5.39848000;2023-04-03T02:48:00;103130.81;;;3.05
7830;BMP180;3960;51.86894000;5.39848000;2023-04-03T02:50:25;103134.06;;;3.02
7830;BMP180;3960;51.86894000;5.39848000;2023-04-03T02:52:51;103111.28;;;2.91
7830;BMP180;3960;51.86894000;5.39848000;2023-04-03T02:55:16;103127.75;;;2.98
7830;BMP180;3960;51.86894000;5.39848000;2023-04-03T02:57:41;103120.78;;;2.97
7830;BMP180;3960;51.86894000;5.39848000;2023-04-03T03:00:07;103117.41;;;2.91
7830;BMP180;3960;51.86894000;5.39848000;2023-04-03T03:02:33;103131.19;;;2.98
7830;BMP180;3960;51.86894000;5.39848000;2023-04-03T03:04:59;103108.78;;;2.81
7830;BMP180;3960;51.86894000;5.39848000;2023-04-03T03:07:24;103133.66;;;2.95
7830;BMP180;3960;51.86894000;5.39848000;2023-04-03T03:09:51;103138.13;;;2.99
7830;BMP180;3960;51.86894000;5.39848000;2023-04-03T03:12:16;103146.94;;;3.00
7830;BMP180;3960;51.86894000;5.39848000;2023-04-03T03:14:46;103138.44;;;2.98
7830;BMP180;3960;51.86894000;5.39848000;2023-04-03T03:17:11;103140.03;;;2.99
7830;BMP180;3960;51.86894000;5.39848000;2023-04-03T03:19:36;103133.19;;;2.93
7830;BMP180;3960;51.86894000;5.39848000;2023-04-03T03:22:02;103138.81;;;2.91
7830;BMP180;3960;51.86894000;5.39848000;2023-04-03T03:24:27;103147.38;;;2.93
7830;BMP180;3960;51.86894000;5.39848000;2023-04-03T03:26:52;103146.59;;;2.93
7830;BMP180;3960;51.86894000;5.39848000;2023-04-03T03:29:18;103140.53;;;2.88
7830;BMP180;3960;51.86894000;5.39848000;2023-04-03T03:31:43;103138.63;;;2.88
7830;BMP180;3960;51.86894000;5.39848000;2023-04-03T03:34:08;103149.84;;;2.90
7830;BMP180;3960;51.86894000;5.39848000;2023-04-03T03:36:33;103152.81;;;2.88
7830;BMP180;3960;51.86894000;5.39848000;2023-04-03T03:38:59;103132.97;;;2.76
7830;BMP180;3960;51.86894000;5.39848000;2023-04-03T03:41:25;103153.59;;;2.89
7830;BMP180;3960;51.86894000;5.39848000;2023-04-03T03:43:50;103154.50;;;2.85
7830;BMP180;3960;51.86894000;5.39848000;2023-04-03T03:46:15;103143.09;;;2.79
7830;BMP180;3960;51.86894000;5.39848000;2023-04-03T03:48:41;103137.03;;;2.74
7830;BMP180;3960;51.86894000;5.39848000;2023-04-03T03:51:06;103163.03;;;2.87
7830;BMP180;3960;51.86894000;5.39848000;2023-04-03T03:53:32;103166.00;;;2.85
7830;BMP180;3960;51.86894000;5.39848000;2023-04-03T03:55:57;103167.66;;;2.81
7830;BMP180;3960;51.86894000;5.39848000;2023-04-03T03:58:23;103161.34;;;2.77
7830;BMP180;3960;51.86894000;5.39848000;2023-04-03T04:00:48;103160.56;;;2.77
7830;BMP180;3960;51.86894000;5.39848000;2023-04-03T04:03:13;103167.97;;;2.80
7830;BMP180;3960;51.86894000;5.39848000;2023-04-03T04:05:39;103159.53;;;2.73
7830;BMP180;3960;51.86894000;5.39848000;2023-04-03T04:08:04;103159.44;;;2.78
7830;BMP180;3960;51.86894000;5.39848000;2023-04-03T04:10:30;103170.97;;;2.78
7830;BMP180;3960;51.86894000;5.39848000;2023-04-03T04:12:55;103164.59;;;2.74
7830;BMP180;3960;51.86894000;5.39848000;2023-04-03T04:15:20;103147.25;;;2.58
7830;BMP180;3960;51.86894000;5.39848000;2023-04-03T04:17:47;103175.03;;;2.76
7830;BMP180;3960;51.86894000;5.39848000;2023-04-03T04:20:12;103171.06;;;2.73
7830;BMP180;3960;51.86894000;5.39848000;2023-04-03T04:22:37;103161.22;;;2.69
7830;BMP180;3960;51.86894000;5.39848000;2023-04-03T04:25:04;103163.59;;;2.70
7830;BMP180;3960;51.86894000;5.39848000;2023-04-03T04:27:29;103169.75;;;2.71
7830;BMP180;3960;51.86894000;5.39848000;2023-04-03T04:29:55;103162.63;;;2.66
7830;BMP180;3960;51.86894000;5.39848000;2023-04-03T04:32:20;103177.59;;;2.67
7830;BMP180;3960;51.86894000;5.39848000;2023-04-03T04:34:45;103173.31;;;2.66
7830;BMP180;3960;51.86894000;5.39848000;2023-04-03T04:37:10;103168.84;;;2.62
7830;BMP180;3960;51.86894000;5.39848000;2023-04-03T04:39:36;103177.66;;;2.62
7830;BMP180;3960;51.86894000;5.39848000;2023-04-03T04:42:01;103162.31;;;2.54
7830;BMP180;3960;51.86894000;5.39848000;2023-04-03T04:44:27;103168.34;;;2.60
7830;BMP180;3960;51.86894000;5.39848000;2023-04-03T04:46:53;103175.28;;;2.61
7830;BMP180;3960;51.86894000;5.39848000;2023-04-03T04:49:18;103191.03;;;2.62
7830;BMP180;3960;51.86894000;5.39848000;2023-04-03T04:51:44;103179.66;;;2.57
7830;BMP180;3960;51.86894000;5.39848000;2023-04-03T04:54:09;103178.63;;;2.53
7830;BMP180;3960;51.86894000;5.39848000;2023-04-03T04:56:34;103193.81;;;2.57
7830;BMP180;3960;51.86894000;5.39848000;2023-04-03T04:59:00;103170.50;;;2.44
7830;BMP180;3960;51.86894000;5.39848000;2023-04-03T05:01:26;103185.06;;;2.52
7830;BMP180;3960;51.86894000;5.39848000;2023-04-03T05:03:51;103191.59;;;2.46
7830;BMP180;3960;51.86894000;5.39848000;2023-04-03T05:06:16;103184.25;;;2.38
7830;BMP180;3960;51.86894000;5.39848000;2023-04-03T05:08:41;103197.25;;;2.44
7830;BMP180;3960;51.86894000;5.39848000;2023-04-03T05:11:07;103199.41;;;2.42
7830;BMP180;3960;51.86894000;5.39848000;2023-04-03T05:13:32;103190.91;;;2.40
7830;BMP180;3960;51.86894000;5.39848000;2023-04-03T05:15:57;103194.16;;;2.37
7830;BMP180;3960;51.86894000;5.39848000;2023-04-03T05:18:23;103194.75;;;2.34
7830;BMP180;3960;51.86894000;5.39848000;2023-04-03T05:20:49;103201.38;;;2.37
7830;BMP180;3960;51.86894000;5.39848000;2023-04-03T05:23:15;103201.38;;;2.37
7830;BMP180;3960;51.86894000;5.39848000;2023-04-03T05:25:40;103202.97;;;2.38
7830;BMP180;3960;51.86894000;5.39848000;2023-04-03T05:28:06;103193.16;;;2.33
7830;BMP180;3960;51.86894000;5.39848000;2023-04-03T05:30:32;103208.13;;;2.34
7830;BMP180;3960;51.86894000;5.39848000;2023-04-03T05:32:58;103201.09;;;2.38
7830;BMP180;3960;51.86894000;5.39848000;2023-04-03T05:35:23;103214.69;;;2.42
7830;BMP180;3960;51.86894000;5.39848000;2023-04-03T05:37:49;103215.19;;;2.44
7830;BMP180;3960;51.86894000;5.39848000;2023-04-03T05:40:14;103217.34;;;2.42
7830;BMP180;3960;51.86894000;5.39848000;2023-04-03T05:42:39;103223.22;;;2.44
7830;BMP180;3960;51.86894000;5.39848000;2023-04-03T05:45:05;103226.66;;;2.44
7830;BMP180;3960;51.86894000;5.39848000;2023-04-03T05:47:31;103222.69;;;2.42
7830;BMP180;3960;51.86894000;5.39848000;2023-04-03T05:49:56;103226.38;;;2.46
7830;BMP180;3960;51.86894000;5.39848000;2023-04-03T05:52:26;103224.28;;;2.43
7830;BMP180;3960;51.86894000;5.39848000;2023-04-03T05:54:51;103232.53;;;2.46
7830;BMP180;3960;51.86894000;5.39848000;2023-04-03T05:57:17;103228.47;;;2.49
7830;BMP180;3960;51.86894000;5.39848000;2023-04-03T05:59:43;103240.28;;;2.93
7830;BMP180;3960;51.86894000;5.39848000;2023-04-03T06:02:14;103239.09;;;3.66
7830;BMP180;3960;51.86894000;5.39848000;2023-04-03T06:04:40;103230.91;;;4.20
7830;BMP180;3960;51.86894000;5.39848000;2023-04-03T06:07:06;103234.31;;;4.55
7830;BMP180;3960;51.86894000;5.39848000;2023-04-03T06:09:33;103233.34;;;4.51
7830;BMP180;3960;51.86894000;5.39848000;2023-04-03T06:11:59;103231.84;;;4.67
7830;BMP180;3960;51.86894000;5.39848000;2023-04-03T06:14:25;103247.53;;;5.04
7830;BMP180;3960;51.86894000;5.39848000;2023-04-03T06:16:51;103241.59;;;4.85
7830;BMP180;3960;51.86894000;5.39848000;2023-04-03T06:19:16;103248.44;;;4.91
7830;BMP180;3960;51.86894000;5.39848000;2023-04-03T06:21:42;103246.56;;;5.00
7830;BMP180;3960;51.86894000;5.39848000;2023-04-03T06:24:11;103250.00;;;4.92
7830;BMP180;3960;51.86894000;5.39848000;2023-04-03T06:26:37;103252.59;;;4.75
7830;BMP180;3960;51.86894000;5.39848000;2023-04-03T06:29:02;103256.38;;;5.04
7830;BMP180;3960;51.86894000;5.39848000;2023-04-03T06:31:28;103257.25;;;5.22
7830;BMP180;3960;51.86894000;5.39848000;2023-04-03T06:33:53;103249.91;;;5.44
7830;BMP180;3960;51.86894000;5.39848000;2023-04-03T06:36:19;103260.59;;;5.75
7830;BMP180;3960;51.86894000;5.39848000;2023-04-03T06:38:46;103265.69;;;5.84
7830;BMP180;3960;51.86894000;5.39848000;2023-04-03T06:41:11;103256.81;;;5.84
7830;BMP180;3960;51.86894000;5.39848000;2023-04-03T06:43:37;103254.75;;;5.81
7830;BMP180;3960;51.86894000;5.39848000;2023-04-03T06:46:02;103260.78;;;5.78
7830;BMP180;3960;51.86894000;5.39848000;2023-04-03T06:48:28;103261.34;;;5.75
7830;BMP180;3960;51.86894000;5.39848000;2023-04-03T06:50:54;103260.78;;;5.86
7830;BMP180;3960;51.86894000;5.39848000;2023-04-03T06:53:20;103272.19;;;6.00
7830;BMP180;3960;51.86894000;5.39848000;2023-04-03T06:55:45;103271.56;;;6.37
7830;BMP180;3960;51.86894000;5.39848000;2023-04-03T06:58:12;103274.56;;;6.69
7830;BMP180;3960;51.86894000;5.39848000;2023-04-03T07:00:37;103262.75;;;6.99
7830;BMP180;3960;51.86894000;5.39848000;2023-04-03T07:03:02;103283.91;;;7.26
7830;BMP180;3960;51.86894000;5.39848000;2023-04-03T07:05:27;103280.34;;;7.42
7830;BMP180;3960;51.86894000;5.39848000;2023-04-03T07:07:53;103284.63;;;7.72
7830;BMP180;3960;51.86894000;5.39848000;2023-04-03T07:10:18;103296.88;;;8.19
7830;BMP180;3960;51.86894000;5.39848000;2023-04-03T07:12:44;103293.16;;;8.64
7830;BMP180;3960;51.86894000;5.39848000;2023-04-03T07:15:10;103289.97;;;8.82
7830;BMP180;3960;51.86894000;5.39848000;2023-04-03T07:17:36;103283.78;;;8.94
7830;BMP180;3960;51.86894000;5.39848000;2023-04-03T07:20:02;103296.06;;;9.03
7830;BMP180;3960;51.86894000;5.39848000;2023-04-03T07:22:28;103299.84;;;9.23
7830;BMP180;3960;51.86894000;5.39848000;2023-04-03T07:24:54;103298.38;;;9.49
7830;BMP180;3960;51.86894000;5.39848000;2023-04-03T07:27:19;103305.72;;;9.84
7830;BMP180;3960;51.86894000;5.39848000;2023-04-03T07:29:45;103297.28;;;9.74
7830;BMP180;3960;51.86894000;5.39848000;2023-04-03T07:32:10;103310.22;;;9.92
7830;BMP180;3960;51.86894000;5.39848000;2023-04-03T07:34:36;103313.75;;;9.81
7830;BMP180;3960;51.86894000;5.39848000;2023-04-03T07:37:02;103299.50;;;10.08
7830;BMP180;3960;51.86894000;5.39848000;2023-04-03T07:39:28;103306.16;;;10.49
7830;BMP180;3960;51.86894000;5.39848000;2023-04-03T07:41:54;103307.22;;;10.60
7830;BMP180;3960;51.86894000;5.39848000;2023-04-03T07:44:21;103295.63;;;10.60
7830;BMP180;3960;51.86894000;5.39848000;2023-04-03T07:46:46;103314.28;;;10.77
7830;BMP180;3960;51.86894000;5.39848000;2023-04-03T07:49:12;103308.53;;;10.78
7830;BMP180;3960;51.86894000;5.39848000;2023-04-03T07:51:37;103311.88;;;11.02
7830;BMP180;3960;51.86894000;5.39848000;2023-04-03T07:54:03;103308.13;;;11.07
7830;BMP180;3960;51.86894000;5.39848000;2023-04-03T07:56:29;103317.56;;;10.97
7830;BMP180;3960;51.86894000;5.39848000;2023-04-03T07:58:54;103301.06;;;10.75
7830;BMP180;3960;51.86894000;5.39848000;2023-04-03T08:01:19;103317.19;;;10.84
7830;BMP180;3960;51.86894000;5.39848000;2023-04-03T08:03:45;103310.78;;;10.76
7830;BMP180;3960;51.86894000;5.39848000;2023-04-03T08:06:11;103315.38;;;10.88
7830;BMP180;3960;51.86894000;5.39848000;2023-04-03T08:08:36;103315.00;;;10.89
7830;BMP180;3960;51.86894000;5.39848000;2023-04-03T08:11:02;103317.91;;;10.96
7830;BMP180;3960;51.86894000;5.39848000;2023-04-03T08:13:30;103320.66;;;11.11
7830;BMP180;3960;51.86894000;5.39848000;2023-04-03T08:15:56;103318.88;;;11.03
7830;BMP180;3960;51.86894000;5.39848000;2023-04-03T08:18:23;103308.13;;;11.07
7830;BMP180;3960;51.86894000;5.39848000;2023-04-03T08:20:50;103322.31;;;11.31
7830;BMP180;3960;51.86894000;5.39848000;2023-04-03T08:23:17;103324.78;;;11.36
7830;BMP180;3960;51.86894000;5.39848000;2023-04-03T08:25:42;103325.59;;;11.52
7830;BMP180;3960;51.86894000;5.39848000;2023-04-03T08:28:09;103321.19;;;11.78
7830;BMP180;3960;51.86894000;5.39848000;2023-04-03T08:30:38;103313.72;;;11.91
7830;BMP180;3960;51.86894000;5.39848000;2023-04-03T08:33:03;103314.16;;;11.93
7830;BMP180;3960;51.86894000;5.39848000;2023-04-03T08:35:29;103326.19;;;12.11
7830;BMP180;3960;51.86894000;5.39848000;2023-04-03T08:37:54;103314.81;;;12.05
7830;BMP180;3960;51.86894000;5.39848000;2023-04-03T08:40:20;103319.13;;;11.57
7830;BMP180;3960;51.86894000;5.39848000;2023-04-03T08:48:07;103348.59;;;11.73
7830;BMP180;3960;51.86894000;5.39848000;2023-04-03T08:50:43;103329.09;;;11.53
7830;BMP180;3960;51.86894000;5.39848000;2023-04-03T08:53:15;103346.06;;;11.80
7830;BMP180;3960;51.86894000;5.39848000;2023-04-03T08:55:50;103354.47;;;11.91
7830;BMP180;3960;51.86894000;5.39848000;2023-04-03T08:58:19;103359.69;;;12.34
7830;BMP180;3960;51.86894000;5.39848000;2023-04-03T09:00:46;103354.25;;;12.34
7830;BMP180;3960;51.86894000;5.39848000;2023-04-03T09:03:20;103348.03;;;12.14
7830;BMP180;3960;51.86894000;5.39848000;2023-04-03T09:09:12;103344.84;;;12.12
7830;BMP180;3960;51.86894000;5.39848000;2023-04-03T09:11:51;103347.97;;;12.48
7830;BMP180;3960;51.86894000;5.39848000;2023-04-03T09:16:57;103342.16;;;12.69
7830;BMP180;3960;51.86894000;5.39848000;2023-04-03T09:19:38;103339.69;;;12.60
7830;BMP180;3960;51.86894000;5.39848000;2023-04-03T09:22:25;103340.72;;;12.90
7830;BMP180;3960;51.86894000;5.39848000;2023-04-03T09:25:03;103351.28;;;12.95
7830;BMP180;3960;51.86894000;5.39848000;2023-04-03T09:27:31;103341.25;;;12.80
7830;BMP180;3960;51.86894000;5.39848000;2023-04-03T09:29:56;103342.31;;;12.38
7830;BMP180;3960;51.86894000;5.39848000;2023-04-03T09:32:31;103336.66;;;12.46
7830;BMP180;3960;51.86894000;5.39848000;2023-04-03T09:35:01;103321.94;;;12.47
7830;BMP180;3960;51.86894000;5.39848000;2023-04-03T09:37:43;103331.53;;;12.41
7830;BMP180;3960;51.86894000;5.39848000;2023-04-03T09:40:35;103340.13;;;12.43
7830;BMP180;3960;51.86894000;5.39848000;2023-04-03T09:43:19;103326.88;;;12.61
7830;BMP180;3960;51.86894000;5.39848000;2023-04-03T09:45:46;103329.00;;;12.71
7830;BMP180;3960;51.86894000;5.39848000;2023-04-03T09:50:38;103325.00;;;12.84
7830;BMP180;3960;51.86894000;5.39848000;2023-04-03T09:55:50;103314.28;;;12.72
7830;BMP180;3960;51.86894000;5.39848000;2023-04-03T09:58:42;103309.81;;;12.83
7830;BMP180;3960;51.86894000;5.39848000;2023-04-03T10:01:33;103313.50;;;12.71
7830;BMP180;3960;51.86894000;5.39848000;2023-04-03T10:04:18;103305.63;;;12.29
7830;BMP180;3960;51.86894000;5.39848000;2023-04-03T10:06:50;103303.75;;;12.14
7830;BMP180;3960;51.86894000;5.39848000;2023-04-03T10:14:23;103293.97;;;12.28
7830;BMP180;3960;51.86894000;5.39848000;2023-04-03T10:16:56;103296.75;;;12.50
7830;BMP180;3960;51.86894000;5.39848000;2023-04-03T10:22:08;103300.44;;;12.80
7830;BMP180;3960;51.86894000;5.39848000;2023-04-03T10:27:18;103267.63;;;12.51
7830;BMP180;3960;51.86894000;5.39848000;2023-04-03T10:30:14;103299.31;;;12.62
7830;BMP180;3960;51.86894000;5.39848000;2023-04-03T10:32:54;103279.31;;;12.51
7830;BMP180;3960;51.86894000;5.39848000;2023-04-03T10:35:36;103288.03;;;12.41
7830;BMP180;3960;51.86894000;5.39848000;2023-04-03T10:41:30;103273.22;;;12.58
7830;BMP180;3960;51.86894000;5.39848000;2023-04-03T10:46:49;103259.81;;;12.87
7830;BMP180;3960;51.86894000;5.39848000;2023-04-03T10:52:14;103258.81;;;12.76
7830;BMP180;3960;51.86894000;5.39848000;2023-04-03T10:54:58;103242.72;;;12.68
7830;BMP180;3960;51.86894000;5.39848000;2023-04-03T10:57:25;103242.22;;;12.62
7830;BMP180;3960;51.86894000;5.39848000;2023-04-03T10:59:57;103220.22;;;12.48
7830;BMP180;3960;51.86894000;5.39848000;2023-04-03T11:02:28;103228.72;;;12.47
7830;BMP180;3960;51.86894000;5.39848000;2023-04-03T11:07:32;103225.22;;;12.88
7830;BMP180;3960;51.86894000;5.39848000;2023-04-03T11:10:02;103218.81;;;12.99
7830;BMP180;3960;51.86894000;5.39848000;2023-04-03T11:12:36;103230.13;;;13.01
7830;BMP180;3960;51.86894000;5.39848000;2023-04-03T11:15:04;103213.94;;;13.08
7830;BMP180;3960;51.86894000;5.39848000;2023-04-03T11:17:38;103238.91;;;13.13
7830;BMP180;3960;51.86894000;5.39848000;2023-04-03T11:20:16;103239.00;;;12.98
7830;BMP180;3960;51.86894000;5.39848000;2023-04-03T11:22:50;103231.75;;;12.83
7830;BMP180;3960;51.86894000;5.39848000;2023-04-03T11:25:23;103232.06;;;12.82
7830;BMP180;3960;51.86894000;5.39848000;2023-04-03T11:27:55;103233.09;;;12.93
7830;BMP180;3960;51.86894000;5.39848000;2023-04-03T11:35:29;103228.47;;;13.19
7830;BMP180;3960;51.86894000;5.39848000;2023-04-03T11:37:56;103217.44;;;13.34
7830;BMP180;3960;51.86894000;5.39848000;2023-04-03T11:40:29;103203.53;;;13.13
7830;BMP180;3960;51.86894000;5.39848000;2023-04-03T11:45:35;103201.44;;;13.29
7830;BMP180;3960;51.86894000;5.39848000;2023-04-03T11:48:41;103212.75;;;13.31
7830;BMP180;3960;51.86894000;5.39848000;2023-04-03T11:50:53;103205.03;;;13.37
7830;BMP180;3960;51.86894000;5.39848000;2023-04-03T11:58:25;103193.91;;;13.19
7830;BMP180;3960;51.86894000;5.39848000;2023-04-03T12:01:00;103201.63;;;13.17
7830;BMP180;3960;51.86894000;5.39848000;2023-04-03T12:24:25;103174.19;;;13.55
7830;BMP180;3960;51.86894000;5.39848000;2023-04-03T12:34:42;103164.09;;;13.85
7830;BMP180;3960;51.86894000;5.39848000;2023-04-03T12:40:16;103157.63;;;13.67
7830;BMP180;3960;51.86894000;5.39848000;2023-04-03T12:45:24;103148.69;;;13.67
7830;BMP180;3960;51.86894000;5.39848000;2023-04-03T12:47:52;103153.75;;;13.68
7830;BMP180;3960;51.86894000;5.39848000;2023-04-03T12:50:25;103146.28;;;13.62
7830;BMP180;3960;51.86894000;5.39848000;2023-04-03T12:53:22;103139.41;;;13.71
7830;BMP180;3960;51.86894000;5.39848000;2023-04-03T12:55:54;103131.78;;;13.87
7830;BMP180;3960;51.86894000;5.39848000;2023-04-03T12:58:24;103134.78;;;13.75
7830;BMP180;3960;51.86894000;5.39848000;2023-04-03T13:01:10;103134.22;;;13.63
7830;BMP180;3960;51.86894000;5.39848000;2023-04-03T13:03:39;103118.88;;;13.81
7830;BMP180;3960;51.86894000;5.39848000;2023-04-03T13:06:04;103117.06;;;13.91
7830;BMP180;3960;51.86894000;5.39848000;2023-04-03T13:08:31;103125.88;;;13.78
7830;BMP180;3960;51.86894000;5.39848000;2023-04-03T13:11:08;103122.97;;;13.64
7830;BMP180;3960;51.86894000;5.39848000;2023-04-03T13:13:35;103112.50;;;13.70
7830;BMP180;3960;51.86894000;5.39848000;2023-04-03T13:16:10;103116.22;;;13.84
7830;BMP180;3960;51.86894000;5.39848000;2023-04-03T13:18:37;103116.00;;;13.67
7830;BMP180;3960;51.86894000;5.39848000;2023-04-03T13:21:05;103112.47;;;13.66
7830;BMP180;3960;51.86894000;5.39848000;2023-04-03T13:23:32;103104.72;;;13.68
7830;BMP180;3960;51.86894000;5.39848000;2023-04-03T13:26:00;103112.50;;;13.70
7830;BMP180;3960;51.86894000;5.39848000;2023-04-03T13:28:29;103098.53;;;13.71
7830;BMP180;3960;51.86894000;5.39848000;2023-04-03T13:30:56;103125.34;;;13.69
7830;BMP180;3960;51.86894000;5.39848000;2023-04-03T13:33:26;103106.91;;;13.56
7830;BMP180;3960;51.86894000;5.39848000;2023-04-03T13:36:03;103098.94;;;13.73
7830;BMP180;3960;51.86894000;5.39848000;2023-04-03T13:38:31;103098.25;;;13.80
7830;BMP180;3960;51.86894000;5.39848000;2023-04-03T13:41:01;103099.41;;;13.79
7830;BMP180;3960;51.86894000;5.39848000;2023-04-03T13:43:34;103097.34;;;13.69
7830;BMP180;3960;51.86894000;5.39848000;2023-04-03T13:46:04;103085.91;;;13.56
7830;BMP180;3960;51.86894000;5.39848000;2023-04-03T13:48:51;103077.03;;;13.33
7830;BMP180;3960;51.86894000;5.39848000;2023-04-03T13:51:27;103094.94;;;13.34
7830;BMP180;3960;51.86894000;5.39848000;2023-04-03T13:53:56;103095.19;;;13.22
7830;BMP180;3960;51.86894000;5.39848000;2023-04-03T13:56:31;103088.22;;;13.25
7830;BMP180;3960;51.86894000;5.39848000;2023-04-03T13:59:21;103092.97;;;13.31
7830;BMP180;3960;51.86894000;5.39848000;2023-04-03T14:04:32;103091.84;;;13.07
7830;BMP180;3960;51.86894000;5.39848000;2023-04-03T14:06:57;103081.75;;;13.07
7830;BMP180;3960;51.86894000;5.39848000;2023-04-03T14:09:25;103084.94;;;13.13
7830;BMP180;3960;51.86894000;5.39848000;2023-04-03T14:11:58;103083.53;;;13.22
7830;BMP180;3960;51.86894000;5.39848000;2023-04-03T14:14:30;103083.66;;;13.32
7830;BMP180;3960;51.86894000;5.39848000;2023-04-03T14:16:59;103078.06;;;13.22